createdAt,value
2018-07-11T00:01:51.106Z,85.10
2018-07-11T00:04:19.417Z,85.30
2018-07-11T00:06:47.864Z,85.50
2018-07-11T00:09:16.110Z,85.80
2018-07-11T00:11:44.375Z,85.90
2018-07-11T00:14:12.836Z,85.70
2018-07-11T00:16:45.338Z,85.30
2018-07-11T00:19:13.991Z,85.00
2018-07-11T00:21:42.264Z,84.70
2018-07-11T00:24:10.540Z,84.40
2018-07-11T00:26:39.029Z,84.20
2018-07-11T00:29:07.267Z,84.10
2018-07-11T00:31:36.093Z,83.80
2018-07-11T00:34:04.424Z,83.50
2018-07-11T00:36:32.921Z,83.40
2018-07-11T00:39:01.277Z,83.20
2018-07-11T00:41:29.749Z,82.90
2018-07-11T00:43:58.335Z,82.70
2018-07-11T00:46:26.876Z,82.50
2018-07-11T00:48:55.097Z,82.30
2018-07-11T00:51:23.839Z,82.20
2018-07-11T00:53:52.205Z,82.10
2018-07-11T00:56:20.719Z,82.00
2018-07-11T00:58:52.256Z,82.00
2018-07-11T01:01:21.402Z,81.80
2018-07-11T01:03:52.035Z,81.70
2018-07-11T01:06:20.676Z,81.60
2018-07-11T01:08:53.121Z,81.30
2018-07-11T01:11:22.796Z,81.20
2018-07-11T01:13:51.222Z,81.00
2018-07-11T01:16:20.429Z,80.80
2018-07-11T01:19:10.109Z,80.70
2018-07-11T01:21:38.587Z,80.50
2018-07-11T01:24:06.927Z,80.30
2018-07-11T01:26:36.577Z,80.20
2018-07-11T01:29:05.083Z,80.10
2018-07-11T01:31:33.441Z,80.10
2018-07-11T01:34:02.320Z,80.10
2018-07-11T01:36:31.004Z,80.00
2018-07-11T01:39:00.307Z,80.00
2018-07-11T01:41:28.701Z,80.10
2018-07-11T01:43:56.997Z,80.10
2018-07-11T01:46:28.937Z,80.00
2018-07-11T01:48:57.220Z,79.90
2018-07-11T01:51:37.268Z,79.90
2018-07-11T01:54:05.525Z,79.80
2018-07-11T01:56:33.798Z,79.80
2018-07-11T01:59:02.292Z,79.80
2018-07-11T02:01:30.640Z,80.00
2018-07-11T02:03:59.151Z,80.30
2018-07-11T02:06:27.412Z,80.70
2018-07-11T02:08:55.916Z,81.30
2018-07-11T02:11:24.195Z,83.20
2018-07-11T02:13:52.883Z,83.30
2018-07-11T02:16:21.205Z,84.40
2018-07-11T02:18:49.496Z,85.50
2018-07-11T02:21:17.908Z,86.60
2018-07-11T02:23:46.187Z,87.70
2018-07-11T02:26:14.446Z,88.40
2018-07-11T02:28:42.942Z,89.10
2018-07-11T02:31:11.275Z,89.60
2018-07-11T02:33:39.708Z,90.00
2018-07-11T02:36:08.282Z,90.10
2018-07-11T02:38:36.570Z,90.30
2018-07-11T02:41:04.971Z,90.50
2018-07-11T02:43:33.276Z,90.60
2018-07-11T02:46:02.625Z,90.70
2018-07-11T02:48:30.873Z,90.80
2018-07-11T02:51:00.094Z,90.90
2018-07-11T02:53:28.389Z,90.90
2018-07-11T02:55:56.642Z,91.00
2018-07-11T02:58:24.940Z,91.00
2018-07-11T03:00:53.228Z,91.10
2018-07-11T03:05:49.528Z,91.10
2018-07-11T03:08:18.471Z,91.10
2018-07-11T03:10:47.067Z,91.10
2018-07-11T03:13:18.585Z,91.10
2018-07-11T03:15:46.857Z,91.10
2018-07-11T03:18:15.140Z,91.10
2018-07-11T03:20:43.465Z,91.10
2018-07-11T03:23:11.709Z,91.10
2018-07-11T03:25:39.961Z,91.10
2018-07-11T03:28:08.201Z,91.50
2018-07-11T03:30:36.494Z,91.20
2018-07-11T03:33:04.759Z,91.20
2018-07-11T03:35:33.139Z,91.20
2018-07-11T03:38:01.498Z,91.20
2018-07-11T03:40:29.808Z,91.30
2018-07-11T03:42:58.061Z,91.40
2018-07-11T03:45:26.600Z,91.50
2018-07-11T03:47:54.842Z,91.50
2018-07-11T03:50:23.217Z,91.20
2018-07-11T03:52:51.600Z,91.50
2018-07-11T03:55:19.845Z,91.50
2018-07-11T03:57:48.104Z,91.50
2018-07-11T04:00:16.324Z,91.50
2018-07-11T04:02:44.577Z,91.50
2018-07-11T04:05:12.852Z,91.50
2018-07-11T04:07:41.309Z,91.40
2018-07-11T04:10:09.553Z,91.40
2018-07-11T04:12:37.914Z,91.40
2018-07-11T04:15:06.217Z,91.40
2018-07-11T04:17:34.662Z,91.30
2018-07-11T04:20:03.127Z,91.30
2018-07-11T04:22:31.369Z,91.30
2018-07-11T04:24:59.649Z,91.50
2018-07-11T04:27:28.009Z,91.20
2018-07-11T04:29:56.306Z,91.10
2018-07-11T04:32:24.648Z,91.00
2018-07-11T04:34:52.917Z,91.00
2018-07-11T04:37:21.229Z,90.90
2018-07-11T04:39:49.541Z,90.80
2018-07-11T04:42:17.796Z,90.70
2018-07-11T04:44:46.035Z,90.70
2018-07-11T04:47:14.335Z,90.70
2018-07-11T04:49:42.884Z,90.70
2018-07-11T04:52:12.080Z,90.70
2018-07-11T04:54:40.441Z,90.80
2018-07-11T04:57:08.833Z,90.80
2018-07-11T04:59:37.056Z,90.90
2018-07-11T05:02:05.300Z,91.00
2018-07-11T05:04:33.560Z,91.10
2018-07-11T05:07:01.873Z,91.10
2018-07-11T05:09:30.126Z,91.10
2018-07-11T05:11:58.375Z,90.90
2018-07-11T05:14:26.698Z,91.20
2018-07-11T05:16:54.980Z,91.10
2018-07-11T05:19:23.209Z,91.00
2018-07-11T05:21:52.032Z,91.00
2018-07-11T05:24:20.314Z,91.10
2018-07-11T05:26:48.640Z,91.10
2018-07-11T05:29:16.916Z,91.30
2018-07-11T05:31:45.140Z,90.80
2018-07-11T05:34:13.447Z,90.60
2018-07-11T05:36:41.688Z,90.60
2018-07-11T05:39:10.043Z,90.60
2018-07-11T05:41:38.308Z,90.70
2018-07-11T05:44:06.611Z,90.70
2018-07-11T05:46:34.839Z,90.70
2018-07-11T05:49:03.141Z,90.70
2018-07-11T05:51:31.422Z,90.70
2018-07-11T05:53:59.749Z,90.70
2018-07-11T05:56:28.021Z,90.70
2018-07-11T05:58:56.280Z,90.60
2018-07-11T06:01:24.580Z,90.50
2018-07-11T06:03:53.000Z,90.40
2018-07-11T06:06:21.253Z,89.90
2018-07-11T06:08:49.628Z,88.50
2018-07-11T06:11:25.178Z,87.10
2018-07-11T06:13:54.259Z,86.30
2018-07-11T06:16:23.190Z,85.40
2018-07-11T06:18:51.396Z,84.90
2018-07-11T06:21:22.619Z,84.00
2018-07-11T06:23:50.872Z,82.90
2018-07-11T06:26:19.246Z,82.20
2018-07-11T06:28:47.509Z,80.70
2018-07-11T06:31:15.758Z,79.70
2018-07-11T06:33:44.077Z,78.90
2018-07-11T06:36:12.328Z,78.10
2018-07-11T06:38:40.520Z,76.80
2018-07-11T06:41:08.761Z,75.80
2018-07-11T06:43:37.076Z,75.10
2018-07-11T06:46:05.369Z,75.30
2018-07-11T06:48:34.647Z,74.60
2018-07-11T06:51:02.960Z,74.00
2018-07-11T06:53:31.232Z,74.10
2018-07-11T06:55:59.556Z,74.40
2018-07-11T06:58:27.742Z,75.00
2018-07-11T07:03:24.827Z,74.30
2018-07-11T07:05:53.017Z,73.60
2018-07-11T07:08:21.292Z,73.00
2018-07-11T07:10:49.625Z,72.70
2018-07-11T07:13:17.945Z,73.30
2018-07-11T07:15:46.201Z,74.30
2018-07-11T07:18:14.440Z,72.50
2018-07-11T07:20:42.721Z,71.40
2018-07-11T07:23:11.031Z,70.50
2018-07-11T07:25:39.338Z,70.40
2018-07-11T07:28:07.658Z,70.50
2018-07-11T07:30:35.908Z,70.40
2018-07-11T07:33:04.196Z,70.80
2018-07-11T07:35:32.482Z,70.90
2018-07-11T07:38:00.865Z,71.00
2018-07-11T07:40:29.100Z,71.20
2018-07-11T07:42:57.400Z,71.70
2018-07-11T07:45:25.701Z,71.10
2018-07-11T07:47:54.040Z,71.50
2018-07-11T07:50:22.281Z,72.40
2018-07-11T07:52:50.967Z,72.00
2018-07-11T07:55:19.189Z,72.00
2018-07-11T07:57:47.462Z,72.00
2018-07-11T08:00:15.726Z,71.80
2018-07-11T08:02:43.965Z,71.10
2018-07-11T08:05:12.372Z,70.80
2018-07-11T08:07:40.692Z,70.10
2018-07-11T08:10:10.295Z,68.80
2018-07-11T08:12:38.848Z,67.70
2018-07-11T08:15:07.772Z,65.40
2018-07-11T08:17:36.034Z,65.10
2018-07-11T08:20:04.340Z,65.70
2018-07-11T08:23:12.264Z,66.80
2018-07-11T08:25:52.420Z,67.90
2018-07-11T08:29:31.759Z,68.30
2018-07-11T08:32:11.014Z,67.00
2018-07-11T08:34:50.257Z,66.10
2018-07-11T08:39:33.639Z,65.00
2018-07-11T08:42:14.023Z,62.90
2018-07-11T08:44:54.532Z,60.00
2018-07-11T08:49:56.185Z,59.40
2018-07-11T08:52:35.012Z,58.20
2018-07-11T08:57:16.549Z,57.90
2018-07-11T09:00:00.644Z,57.70
2018-07-11T09:04:49.289Z,58.00
2018-07-11T09:07:32.424Z,57.90
2018-07-11T09:10:12.241Z,58.80
2018-07-11T09:14:02.521Z,59.10
2018-07-11T09:17:48.906Z,58.60
2018-07-11T09:21:28.226Z,59.10
2018-07-11T09:24:02.497Z,59.30
2018-07-11T09:26:30.777Z,59.90
2018-07-11T09:28:58.953Z,60.00
2018-07-11T09:31:27.221Z,59.20
2018-07-11T09:33:55.444Z,59.20
2018-07-11T09:36:23.701Z,58.70
2018-07-11T09:38:52.001Z,58.40
2018-07-11T09:41:20.360Z,57.70
2018-07-11T09:43:48.855Z,56.80
2018-07-11T09:46:17.116Z,55.50
2018-07-11T09:48:46.000Z,54.80
2018-07-11T09:51:14.459Z,54.00
2018-07-11T09:53:42.788Z,53.50
2018-07-11T09:56:11.111Z,53.70
2018-07-11T09:58:39.888Z,54.50
2018-07-11T10:01:13.689Z,55.10
2018-07-11T10:03:42.016Z,55.60
2018-07-11T10:06:10.346Z,56.30
2018-07-11T10:08:38.681Z,56.90
2018-07-11T10:11:07.071Z,57.20
2018-07-11T10:13:35.407Z,57.00
2018-07-11T10:16:03.727Z,56.30
2018-07-11T10:18:32.032Z,55.60
2018-07-11T10:21:00.278Z,55.50
2018-07-11T10:23:28.545Z,56.00
2018-07-11T10:25:56.914Z,55.80
2018-07-11T10:28:25.774Z,55.30
2018-07-11T10:30:53.999Z,55.30
2018-07-11T10:33:22.253Z,56.10
2018-07-11T10:35:50.593Z,55.80
2018-07-11T10:38:18.843Z,55.80
2018-07-11T10:40:47.088Z,55.20
2018-07-11T10:43:15.375Z,54.50
2018-07-11T10:45:43.647Z,54.40
2018-07-11T10:48:11.948Z,54.40
2018-07-11T10:50:40.323Z,54.30
2018-07-11T10:53:08.661Z,54.40
2018-07-11T10:55:36.918Z,54.80
2018-07-11T10:58:05.216Z,54.90
2018-07-11T11:00:37.137Z,54.50
2018-07-11T11:03:01.753Z,54.30
2018-07-11T11:05:30.045Z,54.50
2018-07-11T11:07:58.985Z,52.50
2018-07-11T11:10:27.264Z,52.50
2018-07-11T11:12:55.490Z,51.30
2018-07-11T11:15:23.776Z,51.10
2018-07-11T11:17:52.025Z,50.60
2018-07-11T11:20:20.331Z,49.70
2018-07-11T11:22:48.616Z,49.30
2018-07-11T11:25:16.898Z,49.10
2018-07-11T11:27:45.160Z,48.90
2018-07-11T11:30:13.457Z,48.80
2018-07-11T11:32:41.952Z,48.90
2018-07-11T11:35:10.261Z,48.90
2018-07-11T11:37:38.495Z,49.20
2018-07-11T11:40:23.889Z,50.10
2018-07-11T11:42:52.271Z,50.80
2018-07-11T11:45:20.520Z,51.60
2018-07-11T11:47:51.171Z,52.40
2018-07-11T11:50:19.444Z,52.50
2018-07-11T11:52:48.489Z,52.00
2018-07-11T11:55:16.724Z,51.50
2018-07-11T11:57:45.084Z,50.90
2018-07-11T12:00:13.416Z,51.00
2018-07-11T12:02:41.681Z,51.10
2018-07-11T12:05:09.957Z,51.20
2018-07-11T12:07:38.244Z,50.90
2018-07-11T12:10:06.721Z,50.70
2018-07-11T12:12:34.993Z,50.40
2018-07-11T12:15:03.677Z,49.40
2018-07-11T12:17:36.110Z,48.90
2018-07-11T12:22:38.671Z,46.70
2018-07-11T12:25:06.920Z,45.70
2018-07-11T12:27:35.254Z,45.10
2018-07-11T12:30:03.508Z,45.00
2018-07-11T12:32:31.736Z,44.90
2018-07-11T12:34:59.964Z,45.60
2018-07-11T12:37:31.892Z,46.60
2018-07-11T12:40:00.260Z,47.60
2018-07-11T12:42:28.563Z,48.60
2018-07-11T12:44:56.828Z,49.20
2018-07-11T12:47:30.612Z,49.70
2018-07-11T12:49:58.952Z,49.70
2018-07-11T12:52:27.499Z,49.80
2018-07-11T12:54:55.873Z,50.10
2018-07-11T12:57:25.374Z,49.90
2018-07-11T12:59:53.619Z,50.10
2018-07-11T13:02:21.956Z,49.90
2018-07-11T13:04:50.350Z,50.00
2018-07-11T13:07:18.656Z,49.40
2018-07-11T13:09:47.205Z,49.20
2018-07-11T13:12:29.218Z,48.80
2018-07-11T13:14:57.557Z,48.50
2018-07-11T13:17:25.809Z,49.10
2018-07-11T13:19:54.142Z,47.80
2018-07-11T13:22:22.501Z,47.20
2018-07-11T13:24:50.779Z,46.90
2018-07-11T13:27:19.094Z,46.70
2018-07-11T13:29:47.508Z,46.50
2018-07-11T13:32:15.872Z,45.80
2018-07-11T13:34:44.108Z,45.40
2018-07-11T13:37:13.029Z,45.60
2018-07-11T13:39:41.384Z,45.80
2018-07-11T13:42:09.724Z,45.40
2018-07-11T13:44:38.065Z,44.80
2018-07-11T13:47:11.653Z,44.80
2018-07-11T13:49:39.926Z,44.80
2018-07-11T13:52:08.210Z,44.40
2018-07-11T13:54:36.526Z,44.90
2018-07-11T13:57:05.120Z,44.60
2018-07-11T13:59:33.345Z,44.40
2018-07-11T14:02:01.709Z,44.80
2018-07-11T14:04:29.957Z,44.70
2018-07-11T14:06:58.572Z,44.80
2018-07-11T14:09:26.916Z,44.80
2018-07-11T14:11:55.549Z,45.20
2018-07-11T14:14:24.808Z,45.50
2018-07-11T14:16:53.048Z,44.80
2018-07-11T14:19:21.478Z,44.40
2018-07-11T14:21:50.384Z,44.00
2018-07-11T14:24:18.641Z,42.50
2018-07-11T14:26:46.976Z,41.80
2018-07-11T14:29:15.308Z,41.80
2018-07-11T14:31:43.561Z,41.50
2018-07-11T14:34:11.827Z,41.30
2018-07-11T14:36:40.060Z,41.30
2018-07-11T14:39:08.473Z,40.40
2018-07-11T14:41:36.812Z,39.30
2018-07-11T14:44:05.094Z,38.70
2018-07-11T14:46:34.810Z,37.20
2018-07-11T14:49:03.482Z,36.70
2018-07-11T14:51:31.916Z,36.70
2018-07-11T14:54:00.065Z,37.30
2018-07-11T14:56:28.336Z,36.20
2018-07-11T14:58:57.767Z,36.70
2018-07-11T15:01:26.009Z,37.50
2018-07-11T15:03:54.369Z,38.10
2018-07-11T15:06:23.452Z,38.80
2018-07-11T15:08:52.162Z,39.10
2018-07-11T15:11:20.941Z,39.70
2018-07-11T15:13:49.453Z,39.00
2018-07-11T15:16:18.088Z,38.30
2018-07-11T15:18:47.368Z,38.10
2018-07-11T15:21:15.869Z,37.30
2018-07-11T15:23:45.851Z,36.80
2018-07-11T15:26:14.270Z,36.70
2018-07-11T15:28:42.896Z,36.10
2018-07-11T15:31:11.390Z,36.30
2018-07-11T15:33:39.717Z,37.10
2018-07-11T15:36:07.893Z,37.90
2018-07-11T15:38:36.210Z,39.00
2018-07-11T15:41:04.649Z,40.00
2018-07-11T15:43:33.267Z,40.50
2018-07-11T15:46:01.553Z,40.90
2018-07-11T15:48:29.810Z,41.70
2018-07-11T15:50:58.495Z,41.10
2018-07-11T15:53:27.149Z,40.90
2018-07-11T15:56:01.915Z,40.90
2018-07-11T15:58:31.628Z,41.10
2018-07-11T16:01:04.672Z,40.90
2018-07-11T16:03:35.439Z,40.00
2018-07-11T16:06:03.777Z,38.90
2018-07-11T16:08:32.034Z,38.20
2018-07-11T16:11:03.786Z,37.40
2018-07-11T16:13:32.468Z,36.40
2018-07-11T16:16:00.737Z,35.70
2018-07-11T16:18:29.292Z,35.00
2018-07-11T16:20:57.592Z,35.10
2018-07-11T16:23:25.932Z,35.50
2018-07-11T16:25:54.172Z,36.20
2018-07-11T16:28:22.476Z,36.30
2018-07-11T16:30:50.745Z,36.80
2018-07-11T16:33:19.046Z,37.40
2018-07-11T16:35:47.560Z,37.80
2018-07-11T16:38:15.841Z,37.70
2018-07-11T16:40:44.160Z,37.10
2018-07-11T16:43:13.613Z,37.10
2018-07-11T16:45:41.979Z,37.60
2018-07-11T16:48:10.318Z,38.20
2018-07-11T16:50:38.661Z,39.30
2018-07-11T16:53:07.332Z,40.50
2018-07-11T16:55:36.308Z,41.70
2018-07-11T16:58:04.602Z,42.80
2018-07-11T17:00:33.940Z,43.60
2018-07-11T17:03:11.003Z,44.30
2018-07-11T17:05:49.742Z,44.90
2018-07-11T17:08:21.611Z,45.20
2018-07-11T17:10:49.948Z,45.60
2018-07-11T17:13:21.636Z,45.80
2018-07-11T17:15:51.736Z,45.90
2018-07-11T17:18:44.249Z,46.10
2018-07-11T17:21:47.972Z,46.40
2018-07-11T17:24:16.484Z,46.60
2018-07-11T17:26:46.968Z,46.80
2018-07-11T17:29:20.625Z,47.00
2018-07-11T17:31:51.282Z,47.20
2018-07-11T17:34:19.526Z,47.50
2018-07-11T17:36:49.857Z,47.70
2018-07-11T17:39:18.708Z,47.90
2018-07-11T17:41:47.355Z,47.90
2018-07-11T17:44:16.396Z,47.90
2018-07-11T17:46:45.975Z,47.90
2018-07-11T17:49:21.017Z,48.00
2018-07-11T17:52:03.725Z,48.10
2018-07-11T17:54:45.941Z,48.30
2018-07-11T17:58:22.340Z,48.70
2018-07-11T18:00:53.769Z,48.90
2018-07-11T18:03:30.829Z,49.90
2018-07-11T18:06:10.897Z,49.50
2018-07-11T18:09:16.148Z,49.60
2018-07-11T18:11:56.269Z,49.70
2018-07-11T18:14:48.556Z,49.60
2018-07-11T18:17:23.039Z,49.60
2018-07-11T18:20:00.956Z,49.60
2018-07-11T18:22:42.965Z,49.60
2018-07-11T18:27:28.497Z,49.70
2018-07-11T18:30:20.560Z,49.90
2018-07-11T18:32:53.764Z,49.80
2018-07-11T18:35:32.245Z,49.90
2018-07-11T18:38:24.004Z,50.00
2018-07-11T18:40:55.772Z,50.20
2018-07-11T18:45:37.859Z,50.40
2018-07-11T18:50:21.359Z,50.80
2018-07-11T18:53:02.539Z,51.20
2018-07-11T18:55:40.289Z,51.70
2018-07-11T18:58:18.436Z,52.10
2018-07-11T19:01:00.518Z,52.40
2018-07-11T19:03:35.781Z,52.70
2018-07-11T19:08:21.221Z,52.80
2018-07-11T19:10:58.922Z,53.00
2018-07-11T19:13:32.819Z,53.10
2018-07-11T19:17:20.869Z,53.40
2018-07-11T19:20:00.807Z,53.70
2018-07-11T19:22:42.639Z,53.90
2018-07-11T19:25:26.909Z,54.10
2018-07-11T19:28:05.450Z,54.30
2018-07-11T19:30:49.047Z,54.50
2018-07-11T19:33:30.109Z,54.70
2018-07-11T19:36:18.441Z,55.10
2018-07-11T19:39:01.070Z,55.50
2018-07-11T19:41:46.793Z,56.30
2018-07-11T19:44:27.335Z,57.00
2018-07-11T19:47:06.904Z,57.70
2018-07-11T19:52:03.125Z,58.60
2018-07-11T19:54:43.248Z,59.40
2018-07-11T19:57:11.568Z,60.20
2018-07-11T19:59:40.024Z,60.90
2018-07-11T20:02:08.328Z,61.80
2018-07-11T20:04:37.237Z,62.30
2018-07-11T20:07:05.593Z,62.90
2018-07-11T20:09:33.937Z,63.60
2018-07-11T20:12:02.219Z,63.80
2018-07-11T20:14:30.760Z,64.20
2018-07-11T20:16:59.025Z,64.60
2018-07-11T20:19:27.906Z,66.20
2018-07-11T20:21:56.472Z,65.90
2018-07-11T20:24:24.700Z,66.30
2018-07-11T20:26:52.939Z,67.40
2018-07-11T20:29:21.199Z,67.10
2018-07-11T20:31:49.495Z,67.30
2018-07-11T20:34:17.709Z,67.40
2018-07-11T20:36:45.935Z,67.30
2018-07-11T20:39:14.316Z,67.00
2018-07-11T20:41:42.836Z,66.60
2018-07-11T20:44:11.148Z,66.50
2018-07-11T20:46:39.660Z,67.00
2018-07-11T20:49:17.060Z,67.50
2018-07-11T20:51:46.066Z,67.50
2018-07-11T20:56:42.709Z,67.80
2018-07-11T20:59:22.281Z,68.20
2018-07-11T21:02:01.857Z,68.00
2018-07-11T21:04:48.462Z,67.90
2018-07-11T21:07:28.014Z,67.80
2018-07-11T21:10:04.511Z,67.80
2018-07-11T21:12:44.132Z,67.80
2018-07-11T21:15:25.060Z,67.80
2018-07-11T21:18:07.480Z,67.80
2018-07-11T21:20:35.985Z,68.30
2018-07-11T21:23:04.358Z,68.10
2018-07-11T21:25:32.548Z,67.80
2018-07-11T21:28:00.844Z,67.60
2018-07-11T21:30:29.071Z,67.60
2018-07-11T21:32:57.367Z,67.50
2018-07-11T21:35:25.665Z,67.70
2018-07-11T21:37:53.940Z,68.00
2018-07-11T21:40:22.192Z,68.50
2018-07-11T21:42:50.469Z,68.90
2018-07-11T21:45:19.324Z,69.20
2018-07-11T21:47:47.564Z,69.40
2018-07-11T21:50:15.808Z,69.60
2018-07-11T21:52:44.096Z,70.00
2018-07-11T21:55:12.436Z,71.30
2018-07-11T21:57:40.736Z,71.10
2018-07-11T22:00:09.025Z,71.80
2018-07-11T22:02:37.226Z,72.20
2018-07-11T22:05:05.885Z,73.10
2018-07-11T22:07:34.253Z,73.10
2018-07-11T22:10:02.542Z,73.60
2018-07-11T22:12:30.759Z,73.90
2018-07-11T22:14:59.008Z,73.80
2018-07-11T22:17:37.435Z,73.70
2018-07-11T22:20:04.665Z,73.70
2018-07-11T22:22:31.897Z,73.50
2018-07-11T22:24:59.113Z,73.70
2018-07-11T22:29:53.829Z,73.50
2018-07-11T22:32:21.028Z,73.70
2018-07-11T22:34:48.248Z,73.70
2018-07-11T22:37:15.460Z,73.90
2018-07-11T22:39:42.784Z,73.50
2018-07-11T22:42:10.018Z,73.20
2018-07-11T22:44:37.228Z,72.30
2018-07-11T22:47:04.465Z,72.40
2018-07-11T22:49:31.685Z,72.50
2018-07-11T22:51:58.925Z,72.50
2018-07-11T22:54:26.140Z,72.70
2018-07-11T22:56:53.375Z,72.70
2018-07-11T22:59:20.674Z,72.90
2018-07-11T23:01:47.954Z,72.90
2018-07-11T23:04:15.172Z,73.20
2018-07-11T23:06:42.437Z,73.10
2018-07-11T23:09:09.654Z,73.20
2018-07-11T23:11:36.862Z,73.00
2018-07-11T23:14:04.090Z,73.10
2018-07-11T23:16:32.150Z,72.80
2018-07-11T23:18:59.402Z,72.80
2018-07-11T23:21:26.622Z,72.90
2018-07-11T23:23:53.880Z,73.70
2018-07-11T23:26:21.072Z,73.00
2018-07-11T23:28:48.304Z,73.00
2018-07-11T23:49:58.933Z,72.00
2018-07-11T23:52:26.185Z,72.30
2018-07-11T23:54:53.434Z,71.80
2018-07-11T23:57:20.677Z,71.70
2018-07-11T23:59:47.863Z,71.90
